createdAt,value
2018-06-12T00:01:41.673Z,10.30
2018-06-12T00:04:12.609Z,11.40
2018-06-12T00:06:44.592Z,11.97
2018-06-12T00:09:15.405Z,11.03
2018-06-12T00:11:47.912Z,11.47
2018-06-12T00:14:18.591Z,11.80
2018-06-12T00:16:50.359Z,11.13
2018-06-12T00:19:21.106Z,10.70
2018-06-12T00:21:53.836Z,11.50
2018-06-12T00:24:27.331Z,11.77
2018-06-12T00:27:01.245Z,12.97
2018-06-12T00:29:32.707Z,12.90
2018-06-12T00:32:06.543Z,11.07
2018-06-12T00:34:38.087Z,12.20
2018-06-12T00:37:08.906Z,11.47
2018-06-12T00:39:39.561Z,11.93
2018-06-12T00:42:11.199Z,12.40
2018-06-12T00:44:41.862Z,12.00
2018-06-12T00:47:12.604Z,12.60
2018-06-12T00:49:43.283Z,13.50
2018-06-12T00:52:14.064Z,13.83
2018-06-12T00:54:44.766Z,12.80
2018-06-12T00:57:15.708Z,12.30
2018-06-12T00:59:48.618Z,12.60
2018-06-12T01:02:19.545Z,13.07
2018-06-12T01:04:51.225Z,13.30
2018-06-12T01:07:22.360Z,12.00
2018-06-12T01:09:53.179Z,12.60
2018-06-12T01:12:23.858Z,13.30
2018-06-12T01:14:56.042Z,13.73
2018-06-12T01:17:26.996Z,13.00
2018-06-12T01:19:57.672Z,13.70
2018-06-12T01:22:28.544Z,13.30
2018-06-12T01:25:00.247Z,13.20
2018-06-12T01:27:30.969Z,14.90
2018-06-12T01:30:02.639Z,15.10
2018-06-12T01:32:35.539Z,14.70
2018-06-12T01:35:06.359Z,14.10
2018-06-12T01:37:38.309Z,13.20
2018-06-12T01:40:09.194Z,14.90
2018-06-12T01:42:40.031Z,12.93
2018-06-12T01:45:10.779Z,13.23
2018-06-12T01:47:41.548Z,12.90
2018-06-12T01:50:12.299Z,13.70
2018-06-12T01:52:43.147Z,13.97
2018-06-12T01:55:13.989Z,14.20
2018-06-12T01:57:44.719Z,13.80
2018-06-12T02:00:15.847Z,15.03
2018-06-12T02:02:46.484Z,15.10
2018-06-12T02:05:17.214Z,14.30
2018-06-12T02:07:47.970Z,13.50
2018-06-12T02:10:18.708Z,15.27
2018-06-12T02:12:49.503Z,16.90
2018-06-12T02:15:22.565Z,16.10
2018-06-12T02:17:53.994Z,17.43
2018-06-12T02:20:24.764Z,18.33
2018-06-12T02:22:57.623Z,15.77
2018-06-12T02:25:28.485Z,19.40
2018-06-12T02:27:59.152Z,19.40
2018-06-12T02:30:30.793Z,17.53
2018-06-12T02:33:05.568Z,19.60
2018-06-12T02:35:36.263Z,18.80
2018-06-12T02:38:06.990Z,18.70
2018-06-12T02:40:37.750Z,20.80
2018-06-12T02:43:08.488Z,19.90
2018-06-12T02:45:40.866Z,20.43
2018-06-12T02:48:11.630Z,18.83
2018-06-12T02:50:42.351Z,19.00
2018-06-12T02:53:14.310Z,19.00
2018-06-12T02:55:45.053Z,21.10
2018-06-12T02:58:17.735Z,18.27
2018-06-12T03:00:51.619Z,20.13
2018-06-12T03:03:22.327Z,20.80
2018-06-12T03:05:54.927Z,18.83
2018-06-12T03:08:26.510Z,21.03
2018-06-12T03:10:57.343Z,19.20
2018-06-12T03:13:28.037Z,21.30
2018-06-12T03:15:58.817Z,20.07
2018-06-12T03:18:29.495Z,20.03
2018-06-12T03:21:00.180Z,18.73
2018-06-12T03:23:30.967Z,18.50
2018-06-12T03:26:01.795Z,18.80
2018-06-12T03:28:32.570Z,17.60
2018-06-12T03:31:03.249Z,19.27
2018-06-12T03:33:34.140Z,19.03
2018-06-12T03:36:05.160Z,18.30
2018-06-12T03:38:35.984Z,18.30
2018-06-12T03:41:06.838Z,18.27
2018-06-12T03:43:38.957Z,17.77
2018-06-12T03:46:10.715Z,20.23
2018-06-12T03:48:41.490Z,20.70
2018-06-12T03:51:13.406Z,20.30
2018-06-12T03:53:44.439Z,21.20
2018-06-12T03:56:16.071Z,22.33
2018-06-12T03:58:46.898Z,24.47
2018-06-12T04:01:17.684Z,24.50
2018-06-12T04:03:48.415Z,25.40
2018-06-12T04:06:19.241Z,22.70
2018-06-12T04:08:50.157Z,22.57
2018-06-12T04:11:20.902Z,23.40
2018-06-12T04:13:51.671Z,23.50
2018-06-12T04:16:22.411Z,22.33
2018-06-12T04:18:56.758Z,22.43
2018-06-12T04:21:30.574Z,23.17
2018-06-12T04:24:01.336Z,20.80
2018-06-12T04:26:33.041Z,19.93
2018-06-12T04:29:05.807Z,20.60
2018-06-12T04:31:36.733Z,23.20
2018-06-12T04:34:07.573Z,18.73
2018-06-12T04:36:38.339Z,18.00
2018-06-12T04:39:09.051Z,17.77
2018-06-12T04:41:40.583Z,18.70
2018-06-12T04:44:12.991Z,18.00
2018-06-12T04:46:46.741Z,18.90
2018-06-12T04:49:17.506Z,17.27
2018-06-12T04:51:48.215Z,16.47
2018-06-12T04:54:18.983Z,17.63
2018-06-12T04:56:49.732Z,16.67
2018-06-12T04:59:20.699Z,16.27
2018-06-12T05:01:59.153Z,16.33
2018-06-12T05:04:31.919Z,16.23
2018-06-12T05:07:02.752Z,16.90
2018-06-12T05:09:34.482Z,14.97
2018-06-12T05:12:05.191Z,16.90
2018-06-12T05:14:39.766Z,16.60
2018-06-12T05:17:11.404Z,16.20
2018-06-12T05:19:44.314Z,16.43
2018-06-12T05:22:15.791Z,15.97
2018-06-12T05:24:47.530Z,15.57
2018-06-12T05:27:20.855Z,15.80
2018-06-12T05:29:52.510Z,16.03
2018-06-12T05:32:24.332Z,14.97
2018-06-12T05:34:56.901Z,12.10
2018-06-12T05:37:30.296Z,10.23
2018-06-12T05:40:02.710Z,12.50
2018-06-12T05:42:35.029Z,11.10
2018-06-12T05:45:06.890Z,9.37
2018-06-12T05:47:38.260Z,9.40
2018-06-12T05:50:13.737Z,10.40
2018-06-12T05:52:45.373Z,10.17
2018-06-12T05:55:18.077Z,10.97
2018-06-12T05:57:49.645Z,10.10
2018-06-12T06:00:22.969Z,10.43
2018-06-12T06:02:54.602Z,9.30
2018-06-12T06:05:28.234Z,8.47
2018-06-12T06:08:05.465Z,8.90
2018-06-12T06:10:39.968Z,10.00
2018-06-12T06:13:13.575Z,9.20
2018-06-12T06:15:46.443Z,9.20
2018-06-12T06:18:19.066Z,10.70
2018-06-12T06:20:51.667Z,9.20
2018-06-12T06:23:29.498Z,10.17
2018-06-12T06:26:00.892Z,9.70
2018-06-12T06:28:32.371Z,9.33
2018-06-12T06:31:03.951Z,11.17
2018-06-12T06:33:43.520Z,12.73
2018-06-12T06:36:15.038Z,11.37
2018-06-12T06:38:47.394Z,11.50
2018-06-12T06:41:18.897Z,13.50
2018-06-12T06:43:50.842Z,11.83
2018-06-12T06:46:21.427Z,12.73
2018-06-12T06:48:52.386Z,13.23
2018-06-12T06:51:26.088Z,13.90
2018-06-12T06:53:56.758Z,15.10
2018-06-12T06:56:27.712Z,14.90
2018-06-12T06:58:57.690Z,15.90
2018-06-12T07:01:28.508Z,14.33
2018-06-12T07:03:59.560Z,14.20
2018-06-12T07:06:29.425Z,12.70
2018-06-12T07:08:59.709Z,14.90
2018-06-12T07:11:29.582Z,14.10
2018-06-12T07:13:59.615Z,14.53
2018-06-12T07:16:29.514Z,14.67
2018-06-12T07:18:59.493Z,15.40
2018-06-12T07:21:29.487Z,14.60
2018-06-12T07:23:59.427Z,14.57
2018-06-12T07:26:29.647Z,14.40
2018-06-12T07:29:01.027Z,14.00
2018-06-12T07:31:31.073Z,14.43
2018-06-12T07:34:01.315Z,17.07
2018-06-12T07:36:31.251Z,15.23
2018-06-12T07:39:01.197Z,14.63
2018-06-12T07:41:31.898Z,13.73
2018-06-12T07:44:02.725Z,13.90
2018-06-12T07:46:34.259Z,14.57
2018-06-12T07:49:04.390Z,11.53
2018-06-12T07:51:37.219Z,12.47
2018-06-12T07:54:21.238Z,12.73
2018-06-12T07:56:53.207Z,11.07
2018-06-12T07:59:26.066Z,10.57
2018-06-12T08:01:57.199Z,10.57
2018-06-12T08:04:27.592Z,10.70
2018-06-12T08:06:58.137Z,8.90
2018-06-12T08:09:29.321Z,10.00
2018-06-12T08:12:01.208Z,8.13
2018-06-12T08:14:33.040Z,9.23
2018-06-12T08:17:03.651Z,8.60
2018-06-12T08:19:39.202Z,8.80
2018-06-12T08:22:10.090Z,8.70
2018-06-12T08:24:41.599Z,7.57
2018-06-12T08:27:14.099Z,7.40
2018-06-12T08:29:45.248Z,6.77
2018-06-12T08:32:16.085Z,6.97
2018-06-12T08:34:46.758Z,7.43
2018-06-12T08:37:17.477Z,6.70
2018-06-12T08:39:48.661Z,6.50
2018-06-12T08:42:19.906Z,6.40
2018-06-12T08:44:54.186Z,8.17
2018-06-12T08:47:26.214Z,6.20
2018-06-12T08:49:58.942Z,7.00
2018-06-12T08:52:29.500Z,7.47
2018-06-12T08:55:00.522Z,6.57
2018-06-12T08:57:31.581Z,7.20
2018-06-12T09:00:02.608Z,6.80
2018-06-12T09:02:35.704Z,6.73
2018-06-12T09:05:07.353Z,6.73
2018-06-12T09:07:38.512Z,8.43
2018-06-12T09:10:13.090Z,7.63
2018-06-12T09:12:43.798Z,6.83
2018-06-12T09:15:14.858Z,7.30
2018-06-12T09:17:45.715Z,7.10
2018-06-12T09:20:16.207Z,6.63
2018-06-12T09:22:47.539Z,8.13
2018-06-12T09:25:22.786Z,7.57
2018-06-12T09:27:54.101Z,7.97
2018-06-12T09:30:24.519Z,7.27
2018-06-12T09:32:54.809Z,7.40
2018-06-12T09:35:25.186Z,7.70
2018-06-12T09:37:56.317Z,7.77
2018-06-12T09:40:27.317Z,8.03
2018-06-12T09:42:58.216Z,9.30
2018-06-12T09:45:29.191Z,7.47
2018-06-12T09:48:00.238Z,7.37
2018-06-12T09:50:33.293Z,7.00
2018-06-12T09:53:03.740Z,6.97
2018-06-12T09:55:36.707Z,7.43
2018-06-12T09:58:07.627Z,7.60
2018-06-12T10:00:46.833Z,7.13
2018-06-12T10:03:18.211Z,8.87
2018-06-12T10:05:50.073Z,7.00
2018-06-12T10:08:20.829Z,7.53
2018-06-12T10:10:54.814Z,9.57
2018-06-12T10:13:26.848Z,6.90
2018-06-12T10:15:57.385Z,6.03
2018-06-12T10:18:27.845Z,6.03
2018-06-12T10:20:58.426Z,8.03
2018-06-12T10:23:28.899Z,9.40
2018-06-12T10:25:59.270Z,9.80
2018-06-12T10:28:29.565Z,9.97
2018-06-12T10:30:59.906Z,10.90
2018-06-12T10:33:30.962Z,11.00
2018-06-12T10:36:01.511Z,12.27
2018-06-12T10:38:34.213Z,12.50
2018-06-12T10:42:08.546Z,14.30
2018-06-12T10:44:39.662Z,14.77
2018-06-12T10:47:10.946Z,15.93
2018-06-12T10:49:41.401Z,15.00
2018-06-12T10:52:14.083Z,15.47
2018-06-12T10:55:00.446Z,17.10
2018-06-12T10:57:35.760Z,18.30
2018-06-12T11:00:07.511Z,19.97
2018-06-12T11:02:38.451Z,18.10
2018-06-12T11:05:09.388Z,18.27
2018-06-12T11:07:42.198Z,19.67
2018-06-12T11:10:13.888Z,18.70
2018-06-12T11:12:44.637Z,17.50
2018-06-12T11:15:16.422Z,17.03
2018-06-12T11:17:47.439Z,16.57
2018-06-12T11:20:19.147Z,17.73
2018-06-12T11:22:50.101Z,16.80
2018-06-12T11:25:19.806Z,16.53
2018-06-12T11:27:50.523Z,15.73
2018-06-12T11:30:20.315Z,13.50
2018-06-12T11:32:53.122Z,13.87
2018-06-12T11:35:24.583Z,13.40
2018-06-12T11:37:55.164Z,12.93
2018-06-12T11:41:54.783Z,13.03
2018-06-12T11:44:25.276Z,11.40
2018-06-12T11:46:56.590Z,11.50
2018-06-12T11:49:28.641Z,11.83
2018-06-12T11:51:59.165Z,11.77
2018-06-12T11:54:29.297Z,12.67
2018-06-12T11:57:00.519Z,11.37
2018-06-12T11:59:31.069Z,12.37
2018-06-12T12:02:00.861Z,12.97
2018-06-12T12:04:32.153Z,12.67
2018-06-12T12:07:01.956Z,12.60
2018-06-12T12:09:33.185Z,12.30
2018-06-12T12:12:03.238Z,12.70
2018-06-12T12:14:41.565Z,13.60
2018-06-12T12:17:15.360Z,13.83
2018-06-12T12:19:46.196Z,11.00
2018-06-12T12:22:16.694Z,11.80
2018-06-12T12:24:48.534Z,10.60
2018-06-12T12:27:19.354Z,10.60
2018-06-12T12:29:50.257Z,11.07
2018-06-12T12:32:23.473Z,11.60
2018-06-12T12:34:54.141Z,12.40
2018-06-12T12:37:25.367Z,9.90
2018-06-12T12:39:58.633Z,10.70
2018-06-12T12:42:31.679Z,10.23
2018-06-12T12:45:01.741Z,10.03
2018-06-12T12:47:31.550Z,9.93
2018-06-12T12:50:02.224Z,9.43
2018-06-12T12:52:32.723Z,10.40
2018-06-12T12:55:12.234Z,9.00
2018-06-12T12:57:42.938Z,9.27
2018-06-12T13:00:14.603Z,8.63
2018-06-12T13:02:46.272Z,8.60
2018-06-12T13:05:23.572Z,8.47
2018-06-12T13:07:55.772Z,7.30
2018-06-12T13:10:32.677Z,7.70
2018-06-12T13:13:03.633Z,8.30
2018-06-12T13:15:37.791Z,6.87
2018-06-12T13:18:24.446Z,6.83
2018-06-12T13:20:57.571Z,7.83
2018-06-12T13:23:27.257Z,8.30
2018-06-12T13:28:38.958Z,7.87
2018-06-12T13:31:14.999Z,8.33
2018-06-12T13:33:48.210Z,8.10
2018-06-12T13:36:28.263Z,6.43
2018-06-12T13:39:01.268Z,7.20
2018-06-12T13:41:33.763Z,6.57
2018-06-12T13:44:11.341Z,8.70
2018-06-12T13:46:41.578Z,7.80
2018-06-12T13:49:13.504Z,7.30
2018-06-12T13:51:45.262Z,6.70
2018-06-12T13:54:19.586Z,8.13
2018-06-12T13:56:49.260Z,6.83
2018-06-12T13:59:22.533Z,7.40
2018-06-12T14:01:52.153Z,6.40
2018-06-12T14:04:21.929Z,7.43
2018-06-12T14:06:51.591Z,6.90
2018-06-12T14:09:22.522Z,8.40
2018-06-12T14:11:52.195Z,6.87
2018-06-12T14:14:24.101Z,8.20
2018-06-12T14:16:54.332Z,7.40
2018-06-12T14:19:28.265Z,8.77
2018-06-12T14:21:58.002Z,8.07
2018-06-12T14:24:27.736Z,7.90
2018-06-12T14:26:57.399Z,7.27
2018-06-12T14:29:27.421Z,8.80
2018-06-12T14:31:59.353Z,10.20
2018-06-12T14:34:30.110Z,7.47
2018-06-12T14:36:59.927Z,8.93
2018-06-12T14:39:32.094Z,7.50
2018-06-12T14:42:03.358Z,8.70
2018-06-12T14:44:33.768Z,8.93
2018-06-12T14:47:03.874Z,10.27
2018-06-12T14:49:39.884Z,9.40
2018-06-12T14:52:12.802Z,9.03
2018-06-12T14:54:45.552Z,10.57
2018-06-12T14:57:16.447Z,9.43
2018-06-12T14:59:46.444Z,11.07
2018-06-12T15:02:20.086Z,10.77
2018-06-12T15:04:57.899Z,10.43
2018-06-12T15:10:24.488Z,16.53
2018-06-12T15:12:53.846Z,12.60
2018-06-12T15:15:23.126Z,13.63
2018-06-12T15:17:52.407Z,13.70
2018-06-12T15:20:21.648Z,14.50
2018-06-12T15:22:50.910Z,14.83
2018-06-12T15:25:20.137Z,15.80
2018-06-12T15:27:49.350Z,14.50
2018-06-12T15:30:18.700Z,15.40
2018-06-12T15:32:47.917Z,13.33
2018-06-12T15:47:38.590Z,13.30
2018-06-12T15:50:09.408Z,14.67
2018-06-12T15:52:40.595Z,13.30
2018-06-12T15:55:10.461Z,13.00
2018-06-12T15:57:41.547Z,14.43
2018-06-12T16:00:12.432Z,12.97
2018-06-12T16:02:48.205Z,13.10
2018-06-12T16:05:20.977Z,12.93
2018-06-12T16:07:50.907Z,14.43
2018-06-12T16:10:20.854Z,12.70
2018-06-12T16:12:53.995Z,12.43
2018-06-12T16:15:25.457Z,12.07
2018-06-12T16:17:57.307Z,12.27
2018-06-12T16:20:27.368Z,12.77
2018-06-12T16:22:57.077Z,10.33
2018-06-12T16:25:28.977Z,10.20
2018-06-12T16:27:58.854Z,11.83
2018-06-12T16:30:31.340Z,9.83
2018-06-12T16:33:05.588Z,8.70
2018-06-12T16:35:40.233Z,10.10
2018-06-12T16:38:11.960Z,8.60
2018-06-12T16:40:43.746Z,8.33
2018-06-12T16:43:13.687Z,8.90
2018-06-12T16:45:49.415Z,9.93
2018-06-12T16:48:22.150Z,10.27
2018-06-12T16:50:58.428Z,9.60
2018-06-12T16:53:30.660Z,9.20
2018-06-12T16:56:01.054Z,8.73
2018-06-12T16:58:32.395Z,8.73
2018-06-12T17:01:02.465Z,8.90
2018-06-12T17:03:33.323Z,9.97
2018-06-12T17:06:03.783Z,10.27
2018-06-12T17:08:35.536Z,10.30
2018-06-12T17:11:10.170Z,9.70
2018-06-12T17:13:40.682Z,10.93
2018-06-12T17:16:12.163Z,11.47
2018-06-12T17:18:45.198Z,10.83
2018-06-12T17:21:16.924Z,11.13
2018-06-12T17:23:52.053Z,10.80
2018-06-12T17:26:28.328Z,12.10
2018-06-12T17:29:02.478Z,10.70
2018-06-12T17:31:33.525Z,11.57
2018-06-12T17:34:05.869Z,10.03
2018-06-12T17:36:36.273Z,12.37
2018-06-12T17:39:11.100Z,11.17
2018-06-12T17:41:41.205Z,14.00
2018-06-12T17:44:12.073Z,11.50
2018-06-12T17:46:43.286Z,11.70
2018-06-12T17:49:19.255Z,13.00
2018-06-12T17:51:53.504Z,11.27
2018-06-12T17:54:25.920Z,12.00
2018-06-12T17:56:58.369Z,13.40
2018-06-12T17:59:33.288Z,13.53
2018-06-12T18:02:07.323Z,12.67
2018-06-12T18:04:41.440Z,12.47
2018-06-12T18:07:16.336Z,13.90
2018-06-12T18:09:53.552Z,11.73
2018-06-12T18:12:29.730Z,11.53
2018-06-12T18:15:06.177Z,13.43
2018-06-12T18:17:39.003Z,11.60
2018-06-12T18:20:13.514Z,11.13
2018-06-12T18:22:48.370Z,10.63
2018-06-12T18:25:23.118Z,10.60
2018-06-12T18:27:56.329Z,10.30
2018-06-12T18:30:42.158Z,11.00
2018-06-12T18:33:17.785Z,11.00
2018-06-12T18:36:42.239Z,10.97
2018-06-12T18:39:15.268Z,11.03
2018-06-12T18:41:47.889Z,10.30
2018-06-12T18:47:02.793Z,10.23
2018-06-12T18:52:34.354Z,9.83
2018-06-12T18:55:26.613Z,8.93
2018-06-12T18:57:55.984Z,9.87
2018-06-12T19:00:25.400Z,9.80
2018-06-12T19:02:54.625Z,10.73
2018-06-12T19:05:24.088Z,10.30
2018-06-12T19:07:53.369Z,10.17
2018-06-12T19:10:22.633Z,10.40
2018-06-12T19:12:51.910Z,9.90
2018-06-12T19:15:21.128Z,9.73
2018-06-12T19:17:50.478Z,10.10
2018-06-12T19:20:19.775Z,10.13
2018-06-12T19:22:49.082Z,10.10
2018-06-12T19:25:18.370Z,9.97
2018-06-12T19:27:47.702Z,8.83
2018-06-12T19:30:16.991Z,8.93
2018-06-12T19:32:46.242Z,10.90
2018-06-12T19:35:15.517Z,12.40
2018-06-12T19:37:44.865Z,10.63
2018-06-12T19:40:14.269Z,10.27
2018-06-12T19:42:43.660Z,10.33
2018-06-12T19:45:12.963Z,11.07
2018-06-12T19:47:42.213Z,10.33
2018-06-12T19:50:11.588Z,11.20
2018-06-12T19:52:40.868Z,10.80
2018-06-12T19:55:10.185Z,10.43
2018-06-12T19:57:39.481Z,10.60
2018-06-12T20:00:08.765Z,10.07
2018-06-12T20:02:37.938Z,10.53
2018-06-12T20:05:08.240Z,10.43
2018-06-12T20:07:37.523Z,10.40
2018-06-12T20:10:06.841Z,10.50
2018-06-12T20:12:36.091Z,9.70
2018-06-12T20:15:05.529Z,9.70
2018-06-12T20:17:34.763Z,10.10
2018-06-12T20:20:04.145Z,9.83
2018-06-12T20:22:33.412Z,10.97
2018-06-12T20:25:02.690Z,10.33
2018-06-12T20:27:31.920Z,9.40
2018-06-12T20:30:01.164Z,9.00
2018-06-12T20:32:30.426Z,9.77
2018-06-12T20:34:59.692Z,9.70
2018-06-12T20:37:28.987Z,8.60
2018-06-12T20:39:58.365Z,9.70
2018-06-12T20:42:27.539Z,8.83
2018-06-12T20:44:56.846Z,10.63
2018-06-12T20:47:26.121Z,9.87
2018-06-12T20:49:55.358Z,10.37
2018-06-12T20:52:24.608Z,7.40
2018-06-12T20:54:53.846Z,5.30
2018-06-12T20:57:23.061Z,5.50
2018-06-12T20:59:52.337Z,6.57
2018-06-12T21:02:21.592Z,5.47
2018-06-12T21:04:50.848Z,6.17
2018-06-12T21:07:20.344Z,6.47
2018-06-12T21:09:49.348Z,6.57
2018-06-12T21:12:18.685Z,5.93
2018-06-12T21:14:47.972Z,8.30
2018-06-12T21:17:17.251Z,6.30
2018-06-12T21:19:46.505Z,6.00
2018-06-12T21:22:15.818Z,7.00
2018-06-12T21:24:45.057Z,6.67
2018-06-12T21:27:14.320Z,5.37
2018-06-12T21:29:43.575Z,6.90
2018-06-12T21:32:12.836Z,6.80
2018-06-12T21:34:42.063Z,5.97
2018-06-12T21:37:11.323Z,6.13
2018-06-12T21:39:40.625Z,6.37
2018-06-12T21:42:09.838Z,6.23
2018-06-12T21:44:39.077Z,6.43
2018-06-12T21:47:08.549Z,7.10
2018-06-12T21:49:38.089Z,6.00
2018-06-12T21:52:07.479Z,5.33
2018-06-12T21:54:36.830Z,5.77
2018-06-12T21:57:06.150Z,5.40
2018-06-12T21:59:35.466Z,5.90
2018-06-12T22:02:04.669Z,6.17
2018-06-12T22:04:33.915Z,5.57
2018-06-12T22:07:03.141Z,5.90
2018-06-12T22:09:32.457Z,5.50
2018-06-12T22:12:01.658Z,6.40
2018-06-12T22:14:30.936Z,6.47
2018-06-12T22:17:00.502Z,6.80
2018-06-12T22:19:29.787Z,6.00
2018-06-12T22:21:59.064Z,5.53
2018-06-12T22:24:28.386Z,5.13
2018-06-12T22:26:58.085Z,6.47
2018-06-12T22:29:27.370Z,6.57
2018-06-12T22:31:56.649Z,4.73
2018-06-12T22:34:26.082Z,5.00
2018-06-12T22:36:55.459Z,5.27
2018-06-12T22:39:24.748Z,5.63
2018-06-12T22:41:53.996Z,5.07
2018-06-12T22:44:23.235Z,5.50
2018-06-12T22:46:52.482Z,6.07
2018-06-12T22:49:21.842Z,5.90
2018-06-12T22:51:51.017Z,5.13
2018-06-12T22:54:20.318Z,5.13
2018-06-12T22:56:49.475Z,5.83
2018-06-12T22:59:18.715Z,4.80
2018-06-12T23:01:48.098Z,4.83
2018-06-12T23:04:17.292Z,5.00
2018-06-12T23:06:46.540Z,5.67
2018-06-12T23:09:15.736Z,5.40
2018-06-12T23:11:44.932Z,5.10
2018-06-12T23:14:14.172Z,5.83
2018-06-12T23:16:43.423Z,5.47
2018-06-12T23:19:12.700Z,5.37
2018-06-12T23:21:53.060Z,6.03
2018-06-12T23:24:22.243Z,5.57
2018-06-12T23:26:51.471Z,5.40
2018-06-12T23:29:20.728Z,4.70
2018-06-12T23:31:49.940Z,3.90
2018-06-12T23:34:19.175Z,4.97
2018-06-12T23:36:48.396Z,4.33
2018-06-12T23:39:17.711Z,3.60
2018-06-12T23:41:46.919Z,4.50
2018-06-12T23:44:16.128Z,3.70
2018-06-12T23:46:45.407Z,4.30
2018-06-12T23:49:14.597Z,3.80
2018-06-12T23:51:43.847Z,4.63
2018-06-12T23:54:13.108Z,4.23
2018-06-12T23:56:42.347Z,4.37
2018-06-12T23:59:11.597Z,3.70
